sensor_id;sensor_type;location;lat;lon;timestamp;P1;durP1;ratioP1;P2;durP2;ratioP2
57832;SDS011;43667;53.036;6.740;2022-08-01T00:00:32;11.85;;;8.60;;
57832;SDS011;43667;53.036;6.740;2022-08-01T00:02:58;8.70;;;7.07;;
57832;SDS011;43667;53.036;6.740;2022-08-01T00:05:23;10.60;;;8.10;;
57832;SDS011;43667;53.036;6.740;2022-08-01T00:07:49;11.73;;;8.43;;
57832;SDS011;43667;53.036;6.740;2022-08-01T00:10:15;17.15;;;9.77;;
57832;SDS011;43667;53.036;6.740;2022-08-01T00:12:42;16.25;;;9.80;;
57832;SDS011;43667;53.036;6.740;2022-08-01T00:15:09;18.95;;;11.27;;
57832;SDS011;43667;53.036;6.740;2022-08-01T00:17:36;24.30;;;12.48;;
57832;SDS011;43667;53.036;6.740;2022-08-01T00:20:03;12.52;;;8.18;;
57832;SDS011;43667;53.036;6.740;2022-08-01T00:22:30;18.00;;;10.50;;
57832;SDS011;43667;53.036;6.740;2022-08-01T00:24:56;15.10;;;9.90;;
57832;SDS011;43667;53.036;6.740;2022-08-01T00:27:22;12.98;;;9.35;;
57832;SDS011;43667;53.036;6.740;2022-08-01T00:29:47;14.23;;;9.95;;
57832;SDS011;43667;53.036;6.740;2022-08-01T00:32:13;15.05;;;9.90;;
57832;SDS011;43667;53.036;6.740;2022-08-01T00:34:39;22.58;;;12.18;;
57832;SDS011;43667;53.036;6.740;2022-08-01T00:37:04;15.20;;;9.73;;
57832;SDS011;43667;53.036;6.740;2022-08-01T00:39:30;17.13;;;10.80;;
57832;SDS011;43667;53.036;6.740;2022-08-01T00:41:58;19.13;;;10.82;;
57832;SDS011;43667;53.036;6.740;2022-08-01T00:44:24;18.65;;;10.43;;
57832;SDS011;43667;53.036;6.740;2022-08-01T00:46:49;17.27;;;11.32;;
57832;SDS011;43667;53.036;6.740;2022-08-01T00:49:15;17.17;;;11.50;;
57832;SDS011;43667;53.036;6.740;2022-08-01T00:51:41;14.10;;;10.60;;
57832;SDS011;43667;53.036;6.740;2022-08-01T00:54:07;15.93;;;9.90;;
57832;SDS011;43667;53.036;6.740;2022-08-01T00:56:32;19.23;;;11.55;;
57832;SDS011;43667;53.036;6.740;2022-08-01T00:58:58;22.17;;;12.60;;
57832;SDS011;43667;53.036;6.740;2022-08-01T01:01:24;20.05;;;11.90;;
57832;SDS011;43667;53.036;6.740;2022-08-01T01:03:50;16.60;;;11.45;;
57832;SDS011;43667;53.036;6.740;2022-08-01T01:12:29;12.65;;;9.55;;
57832;SDS011;43667;53.036;6.740;2022-08-01T01:15:16;15.30;;;10.07;;
57832;SDS011;43667;53.036;6.740;2022-08-01T01:20:24;12.05;;;8.52;;
57832;SDS011;43667;53.036;6.740;2022-08-01T01:31:19;7.57;;;5.65;;
57832;SDS011;43667;53.036;6.740;2022-08-01T01:33:48;7.07;;;5.60;;
57832;SDS011;43667;53.036;6.740;2022-08-01T01:36:15;6.45;;;4.30;;
57832;SDS011;43667;53.036;6.740;2022-08-01T01:38:43;10.10;;;4.88;;
57832;SDS011;43667;53.036;6.740;2022-08-01T01:41:12;6.35;;;4.60;;
57832;SDS011;43667;53.036;6.740;2022-08-01T01:43:40;5.63;;;4.13;;
57832;SDS011;43667;53.036;6.740;2022-08-01T01:46:07;5.72;;;3.95;;
57832;SDS011;43667;53.036;6.740;2022-08-01T01:48:36;7.65;;;4.10;;
57832;SDS011;43667;53.036;6.740;2022-08-01T01:51:03;10.13;;;4.72;;
57832;SDS011;43667;53.036;6.740;2022-08-01T01:53:30;6.57;;;4.60;;
57832;SDS011;43667;53.036;6.740;2022-08-01T01:55:59;7.15;;;4.40;;
57832;SDS011;43667;53.036;6.740;2022-08-01T01:58:27;5.97;;;3.88;;
57832;SDS011;43667;53.036;6.740;2022-08-01T02:00:56;10.77;;;4.18;;
57832;SDS011;43667;53.036;6.740;2022-08-01T02:03:25;5.72;;;3.50;;
57832;SDS011;43667;53.036;6.740;2022-08-01T02:05:52;5.57;;;2.95;;
57832;SDS011;43667;53.036;6.740;2022-08-01T02:08:19;5.38;;;3.08;;
57832;SDS011;43667;53.036;6.740;2022-08-01T02:10:48;7.97;;;2.88;;
57832;SDS011;43667;53.036;6.740;2022-08-01T02:13:36;7.05;;;2.40;;
57832;SDS011;43667;53.036;6.740;2022-08-01T02:16:03;4.85;;;2.83;;
57832;SDS011;43667;53.036;6.740;2022-08-01T02:18:30;7.90;;;2.78;;
57832;SDS011;43667;53.036;6.740;2022-08-01T02:20:56;7.80;;;2.67;;
57832;SDS011;43667;53.036;6.740;2022-08-01T02:23:23;4.65;;;2.10;;
57832;SDS011;43667;53.036;6.740;2022-08-01T02:25:52;4.85;;;2.45;;
57832;SDS011;43667;53.036;6.740;2022-08-01T02:28:22;5.93;;;2.67;;
57832;SDS011;43667;53.036;6.740;2022-08-01T02:33:21;3.83;;;1.65;;
57832;SDS011;43667;53.036;6.740;2022-08-01T02:38:22;7.75;;;2.13;;
57832;SDS011;43667;53.036;6.740;2022-08-01T02:40:50;8.63;;;2.58;;
57832;SDS011;43667;53.036;6.740;2022-08-01T02:43:20;5.82;;;2.10;;
57832;SDS011;43667;53.036;6.740;2022-08-01T02:45:51;5.82;;;2.15;;
57832;SDS011;43667;53.036;6.740;2022-08-01T02:48:21;6.15;;;2.13;;
57832;SDS011;43667;53.036;6.740;2022-08-01T02:50:51;6.47;;;2.60;;
57832;SDS011;43667;53.036;6.740;2022-08-01T02:53:19;6.60;;;1.98;;
57832;SDS011;43667;53.036;6.740;2022-08-01T02:55:48;5.70;;;1.90;;
57832;SDS011;43667;53.036;6.740;2022-08-01T02:58:16;4.47;;;1.55;;
57832;SDS011;43667;53.036;6.740;2022-08-01T03:00:45;10.65;;;2.05;;
57832;SDS011;43667;53.036;6.740;2022-08-01T03:03:12;5.97;;;2.22;;
57832;SDS011;43667;53.036;6.740;2022-08-01T03:05:40;6.32;;;1.65;;
57832;SDS011;43667;53.036;6.740;2022-08-01T03:08:08;4.80;;;1.45;;
57832;SDS011;43667;53.036;6.740;2022-08-01T03:10:36;9.60;;;1.60;;
57832;SDS011;43667;53.036;6.740;2022-08-01T03:13:04;8.02;;;1.48;;
57832;SDS011;43667;53.036;6.740;2022-08-01T03:15:33;9.45;;;1.80;;
57832;SDS011;43667;53.036;6.740;2022-08-01T03:18:02;5.97;;;1.45;;
57832;SDS011;43667;53.036;6.740;2022-08-01T03:20:30;7.70;;;1.45;;
57832;SDS011;43667;53.036;6.740;2022-08-01T03:22:57;5.80;;;1.55;;
57832;SDS011;43667;53.036;6.740;2022-08-01T03:25:28;6.65;;;1.83;;
57832;SDS011;43667;53.036;6.740;2022-08-01T03:27:56;5.25;;;1.42;;
57832;SDS011;43667;53.036;6.740;2022-08-01T03:30:25;6.00;;;1.58;;
57832;SDS011;43667;53.036;6.740;2022-08-01T03:32:52;9.38;;;1.73;;
57832;SDS011;43667;53.036;6.740;2022-08-01T03:35:18;6.57;;;1.60;;
57832;SDS011;43667;53.036;6.740;2022-08-01T03:37:45;7.60;;;1.70;;
57832;SDS011;43667;53.036;6.740;2022-08-01T03:40:31;10.45;;;1.88;;
57832;SDS011;43667;53.036;6.740;2022-08-01T03:43:05;9.05;;;2.03;;
57832;SDS011;43667;53.036;6.740;2022-08-01T03:45:35;5.95;;;1.98;;
57832;SDS011;43667;53.036;6.740;2022-08-01T03:48:05;15.10;;;2.60;;
57832;SDS011;43667;53.036;6.740;2022-08-01T03:50:35;10.77;;;3.03;;
57832;SDS011;43667;53.036;6.740;2022-08-01T03:53:04;16.45;;;3.50;;
57832;SDS011;43667;53.036;6.740;2022-08-01T03:55:32;13.07;;;2.92;;
57832;SDS011;43667;53.036;6.740;2022-08-01T03:57:59;14.93;;;3.40;;
57832;SDS011;43667;53.036;6.740;2022-08-01T04:00:25;9.40;;;2.75;;
57832;SDS011;43667;53.036;6.740;2022-08-01T04:02:52;12.63;;;3.22;;
57832;SDS011;43667;53.036;6.740;2022-08-01T04:05:18;11.07;;;2.80;;
57832;SDS011;43667;53.036;6.740;2022-08-01T04:07:47;11.88;;;3.45;;
57832;SDS011;43667;53.036;6.740;2022-08-01T04:10:20;8.15;;;2.50;;
57832;SDS011;43667;53.036;6.740;2022-08-01T04:12:49;8.48;;;2.53;;
57832;SDS011;43667;53.036;6.740;2022-08-01T04:15:15;12.15;;;3.58;;
57832;SDS011;43667;53.036;6.740;2022-08-01T04:17:40;9.38;;;2.65;;
57832;SDS011;43667;53.036;6.740;2022-08-01T04:20:06;10.63;;;3.00;;
57832;SDS011;43667;53.036;6.740;2022-08-01T04:22:33;10.68;;;3.42;;
57832;SDS011;43667;53.036;6.740;2022-08-01T04:24:58;10.93;;;2.88;;
57832;SDS011;43667;53.036;6.740;2022-08-01T04:27:28;15.15;;;2.97;;
57832;SDS011;43667;53.036;6.740;2022-08-01T04:29:58;9.25;;;2.78;;
57832;SDS011;43667;53.036;6.740;2022-08-01T04:32:25;14.43;;;3.60;;
57832;SDS011;43667;53.036;6.740;2022-08-01T04:34:55;9.75;;;3.25;;
57832;SDS011;43667;53.036;6.740;2022-08-01T04:37:23;15.23;;;3.35;;
57832;SDS011;43667;53.036;6.740;2022-08-01T04:39:51;13.25;;;3.92;;
57832;SDS011;43667;53.036;6.740;2022-08-01T04:42:18;11.73;;;3.20;;
57832;SDS011;43667;53.036;6.740;2022-08-01T04:44:44;14.00;;;3.35;;
57832;SDS011;43667;53.036;6.740;2022-08-01T04:47:09;17.70;;;3.80;;
57832;SDS011;43667;53.036;6.740;2022-08-01T04:49:36;13.20;;;3.30;;
57832;SDS011;43667;53.036;6.740;2022-08-01T04:52:02;12.70;;;3.22;;
57832;SDS011;43667;53.036;6.740;2022-08-01T04:54:33;11.82;;;3.10;;
57832;SDS011;43667;53.036;6.740;2022-08-01T04:57:01;12.80;;;3.20;;
57832;SDS011;43667;53.036;6.740;2022-08-01T04:59:28;20.25;;;3.47;;
57832;SDS011;43667;53.036;6.740;2022-08-01T05:02:08;15.60;;;3.53;;
57832;SDS011;43667;53.036;6.740;2022-08-01T05:04:35;15.32;;;3.53;;
57832;SDS011;43667;53.036;6.740;2022-08-01T05:07:01;18.05;;;2.88;;
57832;SDS011;43667;53.036;6.740;2022-08-01T05:09:27;18.95;;;2.90;;
57832;SDS011;43667;53.036;6.740;2022-08-01T05:11:53;12.75;;;2.50;;
57832;SDS011;43667;53.036;6.740;2022-08-01T05:14:19;19.30;;;3.20;;
57832;SDS011;43667;53.036;6.740;2022-08-01T05:16:46;16.77;;;3.67;;
57832;SDS011;43667;53.036;6.740;2022-08-01T05:19:11;20.92;;;4.07;;
57832;SDS011;43667;53.036;6.740;2022-08-01T05:21:37;20.65;;;3.42;;
57832;SDS011;43667;53.036;6.740;2022-08-01T05:24:04;21.63;;;3.83;;
57832;SDS011;43667;53.036;6.740;2022-08-01T05:26:30;18.27;;;3.83;;
57832;SDS011;43667;53.036;6.740;2022-08-01T05:28:55;14.45;;;3.03;;
57832;SDS011;43667;53.036;6.740;2022-08-01T05:31:21;15.10;;;3.30;;
57832;SDS011;43667;53.036;6.740;2022-08-01T05:33:47;17.13;;;4.03;;
57832;SDS011;43667;53.036;6.740;2022-08-01T05:36:12;23.33;;;4.25;;
57832;SDS011;43667;53.036;6.740;2022-08-01T05:38:38;19.88;;;3.20;;
57832;SDS011;43667;53.036;6.740;2022-08-01T05:41:03;15.70;;;3.20;;
57832;SDS011;43667;53.036;6.740;2022-08-01T05:43:29;23.55;;;3.70;;
57832;SDS011;43667;53.036;6.740;2022-08-01T05:45:55;19.25;;;3.70;;
57832;SDS011;43667;53.036;6.740;2022-08-01T05:48:20;15.70;;;3.17;;
57832;SDS011;43667;53.036;6.740;2022-08-01T05:50:46;24.42;;;4.28;;
57832;SDS011;43667;53.036;6.740;2022-08-01T05:53:12;21.80;;;4.45;;
57832;SDS011;43667;53.036;6.740;2022-08-01T05:55:38;18.33;;;3.65;;
57832;SDS011;43667;53.036;6.740;2022-08-01T05:58:04;18.15;;;3.33;;
57832;SDS011;43667;53.036;6.740;2022-08-01T06:00:30;18.25;;;3.03;;
57832;SDS011;43667;53.036;6.740;2022-08-01T06:02:55;21.77;;;3.65;;
57832;SDS011;43667;53.036;6.740;2022-08-01T06:05:21;21.08;;;3.50;;
57832;SDS011;43667;53.036;6.740;2022-08-01T06:07:47;17.50;;;2.95;;
57832;SDS011;43667;53.036;6.740;2022-08-01T06:10:12;17.20;;;3.40;;
57832;SDS011;43667;53.036;6.740;2022-08-01T06:12:38;17.50;;;3.40;;
57832;SDS011;43667;53.036;6.740;2022-08-01T06:15:04;17.75;;;3.58;;
57832;SDS011;43667;53.036;6.740;2022-08-01T06:17:30;13.85;;;3.38;;
57832;SDS011;43667;53.036;6.740;2022-08-01T06:19:56;19.15;;;3.30;;
57832;SDS011;43667;53.036;6.740;2022-08-01T06:22:21;15.85;;;3.10;;
57832;SDS011;43667;53.036;6.740;2022-08-01T06:24:47;16.60;;;2.83;;
57832;SDS011;43667;53.036;6.740;2022-08-01T06:27:13;19.55;;;4.05;;
57832;SDS011;43667;53.036;6.740;2022-08-01T06:29:40;16.02;;;2.70;;
57832;SDS011;43667;53.036;6.740;2022-08-01T06:32:05;17.70;;;3.33;;
57832;SDS011;43667;53.036;6.740;2022-08-01T06:34:35;16.40;;;2.88;;
57832;SDS011;43667;53.036;6.740;2022-08-01T06:37:01;18.80;;;3.67;;
57832;SDS011;43667;53.036;6.740;2022-08-01T06:39:27;19.15;;;3.42;;
57832;SDS011;43667;53.036;6.740;2022-08-01T06:41:52;19.42;;;3.75;;
57832;SDS011;43667;53.036;6.740;2022-08-01T06:44:18;17.98;;;3.28;;
57832;SDS011;43667;53.036;6.740;2022-08-01T06:46:44;18.88;;;3.10;;
57832;SDS011;43667;53.036;6.740;2022-08-01T06:49:09;18.38;;;3.38;;
57832;SDS011;43667;53.036;6.740;2022-08-01T06:51:35;19.75;;;3.78;;
57832;SDS011;43667;53.036;6.740;2022-08-01T06:54:01;17.70;;;4.05;;
57832;SDS011;43667;53.036;6.740;2022-08-01T06:56:26;16.10;;;3.55;;
57832;SDS011;43667;53.036;6.740;2022-08-01T06:58:52;15.93;;;3.22;;
57832;SDS011;43667;53.036;6.740;2022-08-01T07:01:18;15.27;;;2.70;;
57832;SDS011;43667;53.036;6.740;2022-08-01T07:03:43;21.77;;;4.13;;
57832;SDS011;43667;53.036;6.740;2022-08-01T07:06:09;20.90;;;3.45;;
57832;SDS011;43667;53.036;6.740;2022-08-01T07:08:35;18.75;;;3.15;;
57832;SDS011;43667;53.036;6.740;2022-08-01T07:11:01;14.82;;;2.50;;
57832;SDS011;43667;53.036;6.740;2022-08-01T07:13:28;24.48;;;3.83;;
57832;SDS011;43667;53.036;6.740;2022-08-01T07:15:56;23.38;;;3.42;;
57832;SDS011;43667;53.036;6.740;2022-08-01T07:18:22;14.98;;;3.47;;
57832;SDS011;43667;53.036;6.740;2022-08-01T07:20:48;17.60;;;3.38;;
57832;SDS011;43667;53.036;6.740;2022-08-01T07:23:14;14.80;;;2.80;;
57832;SDS011;43667;53.036;6.740;2022-08-01T07:25:41;16.63;;;3.30;;
57832;SDS011;43667;53.036;6.740;2022-08-01T07:28:09;19.65;;;3.63;;
57832;SDS011;43667;53.036;6.740;2022-08-01T07:30:35;21.75;;;3.33;;
57832;SDS011;43667;53.036;6.740;2022-08-01T07:33:01;15.27;;;3.13;;
57832;SDS011;43667;53.036;6.740;2022-08-01T07:35:28;22.52;;;3.38;;
57832;SDS011;43667;53.036;6.740;2022-08-01T07:37:54;20.75;;;4.15;;
57832;SDS011;43667;53.036;6.740;2022-08-01T07:40:20;15.98;;;3.03;;
57832;SDS011;43667;53.036;6.740;2022-08-01T07:42:46;18.30;;;3.13;;
57832;SDS011;43667;53.036;6.740;2022-08-01T07:45:12;14.05;;;3.22;;
57832;SDS011;43667;53.036;6.740;2022-08-01T07:47:39;18.40;;;3.92;;
57832;SDS011;43667;53.036;6.740;2022-08-01T07:50:05;22.25;;;4.40;;
57832;SDS011;43667;53.036;6.740;2022-08-01T07:52:31;20.52;;;3.22;;
57832;SDS011;43667;53.036;6.740;2022-08-01T07:55:00;18.70;;;3.13;;
57832;SDS011;43667;53.036;6.740;2022-08-01T07:57:26;14.82;;;2.70;;
57832;SDS011;43667;53.036;6.740;2022-08-01T07:59:51;16.38;;;3.13;;
57832;SDS011;43667;53.036;6.740;2022-08-01T08:02:17;18.92;;;3.28;;
57832;SDS011;43667;53.036;6.740;2022-08-01T08:04:43;14.65;;;3.42;;
57832;SDS011;43667;53.036;6.740;2022-08-01T08:07:09;17.38;;;3.20;;
57832;SDS011;43667;53.036;6.740;2022-08-01T08:09:34;21.27;;;3.28;;
57832;SDS011;43667;53.036;6.740;2022-08-01T08:12:00;14.93;;;2.83;;
57832;SDS011;43667;53.036;6.740;2022-08-01T08:14:25;17.25;;;3.17;;
57832;SDS011;43667;53.036;6.740;2022-08-01T08:16:51;16.27;;;2.90;;
57832;SDS011;43667;53.036;6.740;2022-08-01T08:19:17;14.32;;;3.10;;
57832;SDS011;43667;53.036;6.740;2022-08-01T08:21:43;14.93;;;2.70;;
57832;SDS011;43667;53.036;6.740;2022-08-01T08:24:09;14.27;;;2.65;;
57832;SDS011;43667;53.036;6.740;2022-08-01T08:26:51;16.33;;;3.00;;
57832;SDS011;43667;53.036;6.740;2022-08-01T08:29:22;16.95;;;3.17;;
57832;SDS011;43667;53.036;6.740;2022-08-01T08:31:49;17.63;;;2.95;;
57832;SDS011;43667;53.036;6.740;2022-08-01T08:34:15;13.13;;;2.42;;
57832;SDS011;43667;53.036;6.740;2022-08-01T08:36:42;12.23;;;2.40;;
57832;SDS011;43667;53.036;6.740;2022-08-01T08:39:07;12.65;;;2.72;;
57832;SDS011;43667;53.036;6.740;2022-08-01T08:41:33;16.77;;;2.85;;
57832;SDS011;43667;53.036;6.740;2022-08-01T08:44:00;15.55;;;2.33;;
57832;SDS011;43667;53.036;6.740;2022-08-01T08:46:27;15.13;;;2.92;;
57832;SDS011;43667;53.036;6.740;2022-08-01T08:48:54;11.68;;;2.45;;
57832;SDS011;43667;53.036;6.740;2022-08-01T08:51:20;15.75;;;2.28;;
57832;SDS011;43667;53.036;6.740;2022-08-01T08:53:48;18.73;;;2.33;;
57832;SDS011;43667;53.036;6.740;2022-08-01T08:56:17;14.32;;;2.75;;
57832;SDS011;43667;53.036;6.740;2022-08-01T08:58:43;14.88;;;2.45;;
57832;SDS011;43667;53.036;6.740;2022-08-01T09:01:10;12.93;;;2.92;;
57832;SDS011;43667;53.036;6.740;2022-08-01T09:03:40;15.55;;;3.38;;
57832;SDS011;43667;53.036;6.740;2022-08-01T09:06:06;14.73;;;2.78;;
57832;SDS011;43667;53.036;6.740;2022-08-01T09:08:32;13.95;;;2.50;;
57832;SDS011;43667;53.036;6.740;2022-08-01T09:10:58;13.80;;;2.58;;
57832;SDS011;43667;53.036;6.740;2022-08-01T09:13:23;14.60;;;2.33;;
57832;SDS011;43667;53.036;6.740;2022-08-01T09:15:53;16.58;;;2.38;;
57832;SDS011;43667;53.036;6.740;2022-08-01T09:18:36;10.85;;;1.90;;
57832;SDS011;43667;53.036;6.740;2022-08-01T09:23:34;12.48;;;1.95;;
57832;SDS011;43667;53.036;6.740;2022-08-01T09:26:05;9.75;;;1.75;;
57832;SDS011;43667;53.036;6.740;2022-08-01T09:28:31;10.20;;;1.83;;
57832;SDS011;43667;53.036;6.740;2022-08-01T09:30:57;11.23;;;2.05;;
57832;SDS011;43667;53.036;6.740;2022-08-01T09:33:46;12.80;;;2.13;;
57832;SDS011;43667;53.036;6.740;2022-08-01T09:36:16;11.40;;;2.08;;
57832;SDS011;43667;53.036;6.740;2022-08-01T09:38:42;9.07;;;1.67;;
57832;SDS011;43667;53.036;6.740;2022-08-01T09:41:08;10.32;;;1.75;;
57832;SDS011;43667;53.036;6.740;2022-08-01T09:43:34;9.40;;;2.20;;
57832;SDS011;43667;53.036;6.740;2022-08-01T09:46:04;10.00;;;1.83;;
57832;SDS011;43667;53.036;6.740;2022-08-01T09:48:37;7.32;;;1.52;;
57832;SDS011;43667;53.036;6.740;2022-08-01T09:51:04;8.85;;;1.73;;
57832;SDS011;43667;53.036;6.740;2022-08-01T09:53:47;9.65;;;1.63;;
57832;SDS011;43667;53.036;6.740;2022-08-01T09:56:14;8.43;;;1.50;;
57832;SDS011;43667;53.036;6.740;2022-08-01T09:58:53;11.80;;;1.55;;
57832;SDS011;43667;53.036;6.740;2022-08-01T10:01:23;7.65;;;1.83;;
57832;SDS011;43667;53.036;6.740;2022-08-01T10:06:50;7.20;;;1.40;;
57832;SDS011;43667;53.036;6.740;2022-08-01T10:09:27;10.65;;;1.52;;
57832;SDS011;43667;53.036;6.740;2022-08-01T10:11:58;10.27;;;1.30;;
57832;SDS011;43667;53.036;6.740;2022-08-01T10:14:25;7.97;;;1.25;;
57832;SDS011;43667;53.036;6.740;2022-08-01T10:16:52;9.02;;;1.45;;
57832;SDS011;43667;53.036;6.740;2022-08-01T10:19:22;9.68;;;1.92;;
57832;SDS011;43667;53.036;6.740;2022-08-01T10:21:53;7.75;;;1.48;;
57832;SDS011;43667;53.036;6.740;2022-08-01T10:24:20;8.20;;;1.55;;
57832;SDS011;43667;53.036;6.740;2022-08-01T10:26:55;9.65;;;1.25;;
57832;SDS011;43667;53.036;6.740;2022-08-01T10:29:27;8.38;;;1.38;;
57832;SDS011;43667;53.036;6.740;2022-08-01T10:31:56;7.07;;;1.15;;
57832;SDS011;43667;53.036;6.740;2022-08-01T10:34:22;8.20;;;1.52;;
57832;SDS011;43667;53.036;6.740;2022-08-01T10:36:48;8.98;;;1.40;;
57832;SDS011;43667;53.036;6.740;2022-08-01T10:39:14;8.88;;;1.83;;
57832;SDS011;43667;53.036;6.740;2022-08-01T10:41:40;9.00;;;1.80;;
57832;SDS011;43667;53.036;6.740;2022-08-01T10:44:07;10.48;;;1.13;;
57832;SDS011;43667;53.036;6.740;2022-08-01T10:46:37;5.60;;;1.23;;
57832;SDS011;43667;53.036;6.740;2022-08-01T10:49:06;7.95;;;1.20;;
57832;SDS011;43667;53.036;6.740;2022-08-01T10:51:38;5.00;;;1.23;;
57832;SDS011;43667;53.036;6.740;2022-08-01T10:54:06;14.25;;;1.77;;
57832;SDS011;43667;53.036;6.740;2022-08-01T10:59:21;10.90;;;1.85;;
57832;SDS011;43667;53.036;6.740;2022-08-01T11:02:03;6.40;;;1.40;;
57832;SDS011;43667;53.036;6.740;2022-08-01T11:10:19;8.93;;;1.75;;
57832;SDS011;43667;53.036;6.740;2022-08-01T11:12:55;10.77;;;1.45;;
57832;SDS011;43667;53.036;6.740;2022-08-01T11:15:21;5.13;;;1.02;;
57832;SDS011;43667;53.036;6.740;2022-08-01T11:17:52;8.80;;;1.55;;
57832;SDS011;43667;53.036;6.740;2022-08-01T11:26:11;6.60;;;1.40;;
57832;SDS011;43667;53.036;6.740;2022-08-01T11:30:48;9.63;;;1.52;;
57832;SDS011;43667;53.036;6.740;2022-08-01T11:33:14;8.50;;;1.30;;
57832;SDS011;43667;53.036;6.740;2022-08-01T11:38:40;7.18;;;1.20;;
57832;SDS011;43667;53.036;6.740;2022-08-01T11:41:23;6.45;;;1.17;;
57832;SDS011;43667;53.036;6.740;2022-08-01T11:44:01;6.57;;;0.80;;
57832;SDS011;43667;53.036;6.740;2022-08-01T11:52:36;6.45;;;1.00;;
57832;SDS011;43667;53.036;6.740;2022-08-01T11:54:54;8.05;;;1.30;;
57832;SDS011;43667;53.036;6.740;2022-08-01T11:57:22;8.02;;;1.13;;
57832;SDS011;43667;53.036;6.740;2022-08-01T11:59:58;6.80;;;1.30;;
57832;SDS011;43667;53.036;6.740;2022-08-01T12:02:26;7.22;;;1.05;;
57832;SDS011;43667;53.036;6.740;2022-08-01T12:05:01;8.32;;;1.27;;
57832;SDS011;43667;53.036;6.740;2022-08-01T12:07:29;5.93;;;1.08;;
57832;SDS011;43667;53.036;6.740;2022-08-01T12:10:07;5.50;;;1.17;;
57832;SDS011;43667;53.036;6.740;2022-08-01T12:12:41;6.57;;;1.08;;
57832;SDS011;43667;53.036;6.740;2022-08-01T12:15:08;11.57;;;1.23;;
57832;SDS011;43667;53.036;6.740;2022-08-01T12:17:36;5.10;;;1.20;;
57832;SDS011;43667;53.036;6.740;2022-08-01T12:20:13;7.05;;;0.90;;
57832;SDS011;43667;53.036;6.740;2022-08-01T12:22:41;7.57;;;1.23;;
57832;SDS011;43667;53.036;6.740;2022-08-01T12:25:09;8.10;;;1.42;;
57832;SDS011;43667;53.036;6.740;2022-08-01T12:27:36;6.18;;;1.30;;
57832;SDS011;43667;53.036;6.740;2022-08-01T12:30:10;5.93;;;1.10;;
57832;SDS011;43667;53.036;6.740;2022-08-01T12:32:39;5.25;;;0.93;;
57832;SDS011;43667;53.036;6.740;2022-08-01T12:37:42;6.47;;;1.30;;
57832;SDS011;43667;53.036;6.740;2022-08-01T12:42:39;7.97;;;1.40;;
57832;SDS011;43667;53.036;6.740;2022-08-01T12:45:09;7.32;;;1.20;;
57832;SDS011;43667;53.036;6.740;2022-08-01T12:47:38;6.63;;;0.88;;
57832;SDS011;43667;53.036;6.740;2022-08-01T12:50:05;5.43;;;1.00;;
57832;SDS011;43667;53.036;6.740;2022-08-01T12:52:33;5.53;;;0.95;;
57832;SDS011;43667;53.036;6.740;2022-08-01T12:54:59;6.72;;;1.20;;
57832;SDS011;43667;53.036;6.740;2022-08-01T12:57:25;6.82;;;1.20;;
57832;SDS011;43667;53.036;6.740;2022-08-01T13:02:50;4.90;;;0.95;;
57832;SDS011;43667;53.036;6.740;2022-08-01T13:05:48;5.25;;;0.98;;
57832;SDS011;43667;53.036;6.740;2022-08-01T13:16:03;8.60;;;1.25;;
57832;SDS011;43667;53.036;6.740;2022-08-01T13:18:32;6.00;;;1.00;;
57832;SDS011;43667;53.036;6.740;2022-08-01T13:21:15;7.53;;;1.40;;
57832;SDS011;43667;53.036;6.740;2022-08-01T13:24:02;6.82;;;0.98;;
57832;SDS011;43667;53.036;6.740;2022-08-01T13:26:48;6.03;;;1.08;;
57832;SDS011;43667;53.036;6.740;2022-08-01T13:29:19;6.47;;;1.15;;
57832;SDS011;43667;53.036;6.740;2022-08-01T13:31:47;7.57;;;0.90;;
57832;SDS011;43667;53.036;6.740;2022-08-01T13:34:14;4.10;;;1.00;;
57832;SDS011;43667;53.036;6.740;2022-08-01T13:36:40;4.95;;;0.98;;
57832;SDS011;43667;53.036;6.740;2022-08-01T13:39:06;5.40;;;0.98;;
57832;SDS011;43667;53.036;6.740;2022-08-01T13:41:50;7.65;;;1.10;;
57832;SDS011;43667;53.036;6.740;2022-08-01T13:44:17;5.18;;;0.98;;
57832;SDS011;43667;53.036;6.740;2022-08-01T13:46:43;3.30;;;0.73;;
57832;SDS011;43667;53.036;6.740;2022-08-01T13:49:10;7.95;;;1.02;;
57832;SDS011;43667;53.036;6.740;2022-08-01T13:51:37;3.95;;;0.85;;
57832;SDS011;43667;53.036;6.740;2022-08-01T13:54:03;4.93;;;1.00;;
57832;SDS011;43667;53.036;6.740;2022-08-01T13:56:30;6.82;;;1.23;;
57832;SDS011;43667;53.036;6.740;2022-08-01T13:58:56;4.50;;;0.75;;
57832;SDS011;43667;53.036;6.740;2022-08-01T14:01:22;6.80;;;1.65;;
57832;SDS011;43667;53.036;6.740;2022-08-01T14:03:49;9.38;;;1.05;;
57832;SDS011;43667;53.036;6.740;2022-08-01T14:06:15;5.53;;;1.20;;
57832;SDS011;43667;53.036;6.740;2022-08-01T14:08:42;6.93;;;1.08;;
57832;SDS011;43667;53.036;6.740;2022-08-01T14:11:08;6.15;;;1.10;;
57832;SDS011;43667;53.036;6.740;2022-08-01T14:13:34;4.22;;;0.75;;
57832;SDS011;43667;53.036;6.740;2022-08-01T14:16:02;4.53;;;1.10;;
57832;SDS011;43667;53.036;6.740;2022-08-01T14:18:28;6.57;;;1.50;;
57832;SDS011;43667;53.036;6.740;2022-08-01T14:20:53;5.05;;;0.88;;
57832;SDS011;43667;53.036;6.740;2022-08-01T14:23:19;7.53;;;1.08;;
57832;SDS011;43667;53.036;6.740;2022-08-01T14:25:44;6.05;;;0.93;;
57832;SDS011;43667;53.036;6.740;2022-08-01T14:28:10;5.35;;;1.10;;
57832;SDS011;43667;53.036;6.740;2022-08-01T14:30:36;7.15;;;1.23;;
57832;SDS011;43667;53.036;6.740;2022-08-01T14:33:02;5.55;;;1.05;;
57832;SDS011;43667;53.036;6.740;2022-08-01T14:35:28;6.93;;;0.98;;
57832;SDS011;43667;53.036;6.740;2022-08-01T14:37:53;6.97;;;1.38;;
57832;SDS011;43667;53.036;6.740;2022-08-01T14:40:19;8.02;;;1.27;;
57832;SDS011;43667;53.036;6.740;2022-08-01T14:42:45;9.70;;;1.20;;
57832;SDS011;43667;53.036;6.740;2022-08-01T14:45:11;5.32;;;1.00;;
57832;SDS011;43667;53.036;6.740;2022-08-01T14:47:38;4.20;;;0.82;;
57832;SDS011;43667;53.036;6.740;2022-08-01T14:50:06;6.80;;;1.20;;
57832;SDS011;43667;53.036;6.740;2022-08-01T14:52:34;5.05;;;1.10;;
57832;SDS011;43667;53.036;6.740;2022-08-01T14:55:01;7.63;;;1.52;;
57832;SDS011;43667;53.036;6.740;2022-08-01T14:57:26;6.68;;;1.17;;
57832;SDS011;43667;53.036;6.740;2022-08-01T14:59:52;6.05;;;1.23;;
57832;SDS011;43667;53.036;6.740;2022-08-01T15:02:18;6.97;;;1.30;;
57832;SDS011;43667;53.036;6.740;2022-08-01T15:04:44;8.13;;;1.23;;
57832;SDS011;43667;53.036;6.740;2022-08-01T15:07:10;5.97;;;1.90;;
57832;SDS011;43667;53.036;6.740;2022-08-01T15:09:36;6.35;;;1.30;;
57832;SDS011;43667;53.036;6.740;2022-08-01T15:12:02;9.07;;;1.52;;
57832;SDS011;43667;53.036;6.740;2022-08-01T15:14:28;7.85;;;1.50;;
57832;SDS011;43667;53.036;6.740;2022-08-01T15:17:12;8.82;;;2.22;;
57832;SDS011;43667;53.036;6.740;2022-08-01T15:19:41;7.78;;;1.88;;
57832;SDS011;43667;53.036;6.740;2022-08-01T15:22:06;6.22;;;1.15;;
57832;SDS011;43667;53.036;6.740;2022-08-01T15:24:32;9.15;;;1.25;;
57832;SDS011;43667;53.036;6.740;2022-08-01T15:26:57;5.25;;;0.82;;
57832;SDS011;43667;53.036;6.740;2022-08-01T15:29:23;6.15;;;1.20;;
57832;SDS011;43667;53.036;6.740;2022-08-01T15:31:49;5.45;;;0.95;;
57832;SDS011;43667;53.036;6.740;2022-08-01T15:34:15;6.78;;;1.75;;
57832;SDS011;43667;53.036;6.740;2022-08-01T15:36:40;6.15;;;1.02;;
57832;SDS011;43667;53.036;6.740;2022-08-01T15:39:07;4.53;;;1.20;;
57832;SDS011;43667;53.036;6.740;2022-08-01T15:41:34;6.85;;;0.93;;
57832;SDS011;43667;53.036;6.740;2022-08-01T15:43:59;6.05;;;1.48;;
57832;SDS011;43667;53.036;6.740;2022-08-01T15:46:25;6.68;;;1.65;;
57832;SDS011;43667;53.036;6.740;2022-08-01T15:48:51;6.38;;;1.30;;
57832;SDS011;43667;53.036;6.740;2022-08-01T15:51:16;5.82;;;1.17;;
57832;SDS011;43667;53.036;6.740;2022-08-01T15:53:42;9.27;;;1.70;;